sensor_id;sensor_type;location;lat;lon;timestamp;pressure;altitude;pressure_sealevel;temperature;humidity
77725;BME280;66892;53.236;6.550;2023-09-30T00:00:18;102426.63;;;10.24;100.00
77725;BME280;66892;53.236;6.550;2023-09-30T00:02:44;102430.09;;;10.22;100.00
77725;BME280;66892;53.236;6.550;2023-09-30T00:05:10;102423.84;;;10.18;100.00
77725;BME280;66892;53.236;6.550;2023-09-30T00:07:36;102431.06;;;10.24;100.00
77725;BME280;66892;53.236;6.550;2023-09-30T00:10:03;102436.34;;;10.25;100.00
77725;BME280;66892;53.236;6.550;2023-09-30T00:12:30;102428.56;;;10.31;100.00
77725;BME280;66892;53.236;6.550;2023-09-30T00:14:56;102424.09;;;10.29;100.00
77725;BME280;66892;53.236;6.550;2023-09-30T00:17:22;102430.94;;;10.19;100.00
77725;BME280;66892;53.236;6.550;2023-09-30T00:19:48;102428.34;;;10.21;100.00
77725;BME280;66892;53.236;6.550;2023-09-30T00:22:15;102422.28;;;10.26;100.00
77725;BME280;66892;53.236;6.550;2023-09-30T00:24:41;102426.59;;;10.23;100.00
77725;BME280;66892;53.236;6.550;2023-09-30T00:27:07;102418.56;;;10.18;100.00
77725;BME280;66892;53.236;6.550;2023-09-30T00:29:34;102422.94;;;10.16;100.00
77725;BME280;66892;53.236;6.550;2023-09-30T00:32:01;102418.59;;;10.20;100.00
77725;BME280;66892;53.236;6.550;2023-09-30T00:34:27;102425.91;;;10.30;100.00
77725;BME280;66892;53.236;6.550;2023-09-30T00:36:53;102433.06;;;10.35;100.00
77725;BME280;66892;53.236;6.550;2023-09-30T00:39:19;102428.56;;;10.31;100.00
77725;BME280;66892;53.236;6.550;2023-09-30T00:41:45;102426.75;;;10.29;100.00
77725;BME280;66892;53.236;6.550;2023-09-30T00:44:11;102430.16;;;10.25;100.00
77725;BME280;66892;53.236;6.550;2023-09-30T00:46:40;102430.09;;;10.22;100.00
77725;BME280;66892;53.236;6.550;2023-09-30T00:49:07;102421.91;;;10.11;100.00
77725;BME280;66892;53.236;6.550;2023-09-30T00:51:33;102436.09;;;10.15;100.00
77725;BME280;66892;53.236;6.550;2023-09-30T00:54:00;102437.00;;;10.15;100.00
77725;BME280;66892;53.236;6.550;2023-09-30T00:56:29;102449.56;;;10.25;100.00
77725;BME280;66892;53.236;6.550;2023-09-30T00:58:56;102443.38;;;10.23;100.00
77725;BME280;66892;53.236;6.550;2023-09-30T01:01:22;102434.50;;;10.21;100.00
77725;BME280;66892;53.236;6.550;2023-09-30T01:03:50;102441.50;;;10.19;100.00
77725;BME280;66892;53.236;6.550;2023-09-30T01:06:16;102451.09;;;10.14;100.00
77725;BME280;66892;53.236;6.550;2023-09-30T01:08:42;102441.31;;;10.13;100.00
77725;BME280;66892;53.236;6.550;2023-09-30T01:11:08;102446.50;;;10.08;100.00
77725;BME280;66892;53.236;6.550;2023-09-30T01:13:35;102459.75;;;10.10;100.00
77725;BME280;66892;53.236;6.550;2023-09-30T01:16:05;102459.94;;;10.16;100.00
77725;BME280;66892;53.236;6.550;2023-09-30T01:18:31;102460.94;;;10.21;100.00
77725;BME280;66892;53.236;6.550;2023-09-30T01:21:01;102467.19;;;10.25;100.00
77725;BME280;66892;53.236;6.550;2023-09-30T01:23:30;102467.44;;;10.35;100.00
77725;BME280;66892;53.236;6.550;2023-09-30T01:25:56;102462.22;;;10.38;100.00
77725;BME280;66892;53.236;6.550;2023-09-30T01:28:22;102468.53;;;10.43;100.00
77725;BME280;66892;53.236;6.550;2023-09-30T01:30:49;102468.44;;;10.40;100.00
77725;BME280;66892;53.236;6.550;2023-09-30T01:33:15;102466.59;;;10.36;100.00
77725;BME280;66892;53.236;6.550;2023-09-30T01:35:44;102465.72;;;10.37;100.00
77725;BME280;66892;53.236;6.550;2023-09-30T01:38:10;102466.66;;;10.39;100.00
77725;BME280;66892;53.236;6.550;2023-09-30T01:40:38;102463.00;;;10.34;100.00
77725;BME280;66892;53.236;6.550;2023-09-30T01:43:04;102465.63;;;10.33;100.00
77725;BME280;66892;53.236;6.550;2023-09-30T01:45:30;102463.06;;;10.37;100.00
77725;BME280;66892;53.236;6.550;2023-09-30T01:47:56;102461.47;;;10.44;100.00
77725;BME280;66892;53.236;6.550;2023-09-30T01:50:22;102458.81;;;10.42;100.00
77725;BME280;66892;53.236;6.550;2023-09-30T01:52:48;102460.44;;;10.37;100.00
77725;BME280;66892;53.236;6.550;2023-09-30T01:55:14;102449.56;;;10.25;100.00
77725;BME280;66892;53.236;6.550;2023-09-30T01:57:42;102446.78;;;10.18;100.00
77725;BME280;66892;53.236;6.550;2023-09-30T02:00:08;102457.28;;;10.16;100.00
77725;BME280;66892;53.236;6.550;2023-09-30T02:02:35;102457.13;;;10.12;100.00
77725;BME280;66892;53.236;6.550;2023-09-30T02:05:02;102468.69;;;10.14;100.00
77725;BME280;66892;53.236;6.550;2023-09-30T02:07:29;102475.91;;;10.21;100.00
77725;BME280;66892;53.236;6.550;2023-09-30T02:09:56;102461.81;;;10.20;100.00
77725;BME280;66892;53.236;6.550;2023-09-30T02:12:23;102464.47;;;10.22;100.00
77725;BME280;66892;53.236;6.550;2023-09-30T02:14:50;102464.47;;;10.22;100.00
77725;BME280;66892;53.236;6.550;2023-09-30T02:17:16;102466.34;;;10.26;100.00
77725;BME280;66892;53.236;6.550;2023-09-30T02:19:42;102462.88;;;10.28;100.00
77725;BME280;66892;53.236;6.550;2023-09-30T02:22:09;102465.66;;;10.34;100.00
77725;BME280;66892;53.236;6.550;2023-09-30T02:24:35;102461.31;;;10.36;100.00
77725;BME280;66892;53.236;6.550;2023-09-30T02:27:01;102466.75;;;10.44;100.00
77725;BME280;66892;53.236;6.550;2023-09-30T02:29:27;102473.22;;;10.56;100.00
77725;BME280;66892;53.236;6.550;2023-09-30T02:31:55;102474.94;;;10.54;100.00
77725;BME280;66892;53.236;6.550;2023-09-30T02:34:21;102473.25;;;10.58;100.00
77725;BME280;66892;53.236;6.550;2023-09-30T02:36:48;102472.41;;;10.59;100.00
77725;BME280;66892;53.236;6.550;2023-09-30T02:39:14;102467.19;;;10.62;100.00
77725;BME280;66892;53.236;6.550;2023-09-30T02:41:42;102475.31;;;10.71;100.00
77725;BME280;66892;53.236;6.550;2023-09-30T02:44:09;102471.91;;;10.75;100.00
77725;BME280;66892;53.236;6.550;2023-09-30T02:46:35;102465.72;;;10.76;100.00
77725;BME280;66892;53.236;6.550;2023-09-30T02:49:02;102464.09;;;10.83;100.00
77725;BME280;66892;53.236;6.550;2023-09-30T02:51:29;102458.81;;;10.83;100.00
77725;BME280;66892;53.236;6.550;2023-09-30T02:53:56;102462.28;;;10.80;100.00
77725;BME280;66892;53.236;6.550;2023-09-30T02:56:22;102468.47;;;10.81;100.00
77725;BME280;66892;53.236;6.550;2023-09-30T02:58:50;102459.53;;;10.76;100.00
77725;BME280;66892;53.236;6.550;2023-09-30T03:01:17;102462.28;;;10.80;100.00
77725;BME280;66892;53.236;6.550;2023-09-30T03:03:43;102462.34;;;10.82;100.00
77725;BME280;66892;53.236;6.550;2023-09-30T03:06:11;102459.72;;;10.83;100.00
77725;BME280;66892;53.236;6.550;2023-09-30T03:08:38;102466.75;;;10.83;100.00
77725;BME280;66892;53.236;6.550;2023-09-30T03:11:04;102466.81;;;10.84;100.00
77725;BME280;66892;53.236;6.550;2023-09-30T03:13:30;102459.63;;;10.79;100.00
77725;BME280;66892;53.236;6.550;2023-09-30T03:15:56;102463.97;;;10.77;100.00
77725;BME280;66892;53.236;6.550;2023-09-30T03:18:23;102464.75;;;10.73;100.00
77725;BME280;66892;53.236;6.550;2023-09-30T03:20:57;102466.59;;;10.75;100.00
77725;BME280;66892;53.236;6.550;2023-09-30T03:23:27;102464.75;;;10.71;100.00
77725;BME280;66892;53.236;6.550;2023-09-30T03:25:56;102463.00;;;10.72;100.00
77725;BME280;66892;53.236;6.550;2023-09-30T03:28:23;102466.44;;;10.69;100.00
77725;BME280;66892;53.236;6.550;2023-09-30T03:30:50;102460.22;;;10.66;100.00
77725;BME280;66892;53.236;6.550;2023-09-30T03:33:16;102461.91;;;10.64;100.00
77725;BME280;66892;53.236;6.550;2023-09-30T03:35:43;102464.47;;;10.59;100.00
77725;BME280;66892;53.236;6.550;2023-09-30T03:38:10;102475.84;;;10.56;100.00
77725;BME280;66892;53.236;6.550;2023-09-30T03:40:37;102470.50;;;10.52;100.00
77725;BME280;66892;53.236;6.550;2023-09-30T03:43:04;102467.16;;;10.61;100.00
77725;BME280;66892;53.236;6.550;2023-09-30T03:45:33;102470.75;;;10.63;100.00
77725;BME280;66892;53.236;6.550;2023-09-30T03:47:59;102470.81;;;10.66;100.00
77725;BME280;66892;53.236;6.550;2023-09-30T03:50:25;102465.50;;;10.66;100.00
77725;BME280;66892;53.236;6.550;2023-09-30T03:52:51;102473.34;;;10.61;100.00
77725;BME280;66892;53.236;6.550;2023-09-30T03:55:18;102470.56;;;10.55;100.00
77725;BME280;66892;53.236;6.550;2023-09-30T03:57:48;102470.50;;;10.53;100.00
77725;BME280;66892;53.236;6.550;2023-09-30T04:00:14;102473.91;;;10.48;100.00
77725;BME280;66892;53.236;6.550;2023-09-30T04:02:44;102471.06;;;10.40;100.00
77725;BME280;66892;53.236;6.550;2023-09-30T04:05:14;102470.22;;;10.40;100.00
77725;BME280;66892;53.236;6.550;2023-09-30T04:07:41;102460.34;;;10.34;100.00
77725;BME280;66892;53.236;6.550;2023-09-30T04:10:09;102472.72;;;10.35;100.00
77725;BME280;66892;53.236;6.550;2023-09-30T04:12:35;102469.91;;;10.28;100.00
77725;BME280;66892;53.236;6.550;2023-09-30T04:15:03;102470.09;;;10.35;100.00
77725;BME280;66892;53.236;6.550;2023-09-30T04:17:32;102470.09;;;10.35;100.00
77725;BME280;66892;53.236;6.550;2023-09-30T04:19:58;102471.06;;;10.39;100.00
77725;BME280;66892;53.236;6.550;2023-09-30T04:22:25;102465.78;;;10.40;100.00
77725;BME280;66892;53.236;6.550;2023-09-30T04:24:51;102462.22;;;10.38;100.00
77725;BME280;66892;53.236;6.550;2023-09-30T04:27:17;102453.38;;;10.36;100.00
77725;BME280;66892;53.236;6.550;2023-09-30T04:29:43;102458.75;;;10.41;100.00
77725;BME280;66892;53.236;6.550;2023-09-30T04:32:11;102458.88;;;10.47;100.00
77725;BME280;66892;53.236;6.550;2023-09-30T04:34:37;102466.09;;;10.52;100.00
77725;BME280;66892;53.236;6.550;2023-09-30T04:37:03;102474.09;;;10.55;100.00
77725;BME280;66892;53.236;6.550;2023-09-30T04:39:29;102481.13;;;10.55;100.00
77725;BME280;66892;53.236;6.550;2023-09-30T04:41:55;102480.22;;;10.53;100.00
77725;BME280;66892;53.236;6.550;2023-09-30T04:44:21;102481.00;;;10.50;100.00
77725;BME280;66892;53.236;6.550;2023-09-30T04:46:48;102482.75;;;10.48;100.00
77725;BME280;66892;53.236;6.550;2023-09-30T04:49:16;102489.81;;;10.49;100.00
77725;BME280;66892;53.236;6.550;2023-09-30T04:51:43;102494.97;;;10.43;100.00
77725;BME280;66892;53.236;6.550;2023-09-30T04:54:10;102502.88;;;10.42;100.00
77725;BME280;66892;53.236;6.550;2023-09-30T04:56:36;102507.59;;;10.56;100.00
77725;BME280;66892;53.236;6.550;2023-09-30T04:59:02;102505.84;;;10.57;100.00
77725;BME280;66892;53.236;6.550;2023-09-30T05:01:30;102511.13;;;10.55;100.00
77725;BME280;66892;53.236;6.550;2023-09-30T05:03:56;102508.69;;;10.65;100.00
77725;BME280;66892;53.236;6.550;2023-09-30T05:06:24;102512.97;;;10.59;100.00
77725;BME280;66892;53.236;6.550;2023-09-30T05:08:50;102515.47;;;10.53;100.00
77725;BME280;66892;53.236;6.550;2023-09-30T05:11:16;102513.66;;;10.51;100.00
77725;BME280;66892;53.236;6.550;2023-09-30T05:13:42;102530.16;;;10.41;100.00
77725;BME280;66892;53.236;6.550;2023-09-30T05:16:09;102531.69;;;10.31;100.00
77725;BME280;66892;53.236;6.550;2023-09-30T05:18:35;102527.00;;;10.21;100.00
77725;BME280;66892;53.236;6.550;2023-09-30T05:21:01;102528.78;;;10.21;100.00
77725;BME280;66892;53.236;6.550;2023-09-30T05:23:29;102534.03;;;10.19;100.00
77725;BME280;66892;53.236;6.550;2023-09-30T05:25:55;102538.47;;;10.20;100.00
77725;BME280;66892;53.236;6.550;2023-09-30T05:28:21;102533.28;;;10.25;100.00
77725;BME280;66892;53.236;6.550;2023-09-30T05:30:47;102535.06;;;10.26;100.00
77725;BME280;66892;53.236;6.550;2023-09-30T05:33:13;102531.53;;;10.25;100.00
77725;BME280;66892;53.236;6.550;2023-09-30T05:35:40;102535.03;;;10.24;100.00
77725;BME280;66892;53.236;6.550;2023-09-30T05:38:06;102536.94;;;10.30;100.00
77725;BME280;66892;53.236;6.550;2023-09-30T05:40:34;102542.25;;;10.31;100.00
77725;BME280;66892;53.236;6.550;2023-09-30T05:43:00;102538.81;;;10.34;100.00
77725;BME280;66892;53.236;6.550;2023-09-30T05:45:27;102536.19;;;10.35;100.00
77725;BME280;66892;53.236;6.550;2023-09-30T05:47:54;102544.00;;;10.31;100.00
77725;BME280;66892;53.236;6.550;2023-09-30T05:50:22;102541.34;;;10.31;100.00
77725;BME280;66892;53.236;6.550;2023-09-30T05:52:52;102536.97;;;10.31;100.00
77725;BME280;66892;53.236;6.550;2023-09-30T05:55:18;102547.69;;;10.37;100.00
77725;BME280;66892;53.236;6.550;2023-09-30T05:57:49;102554.72;;;10.35;100.00
77725;BME280;66892;53.236;6.550;2023-09-30T06:00:16;102548.59;;;10.38;100.00
77725;BME280;66892;53.236;6.550;2023-09-30T06:02:49;102544.19;;;10.38;100.00
77725;BME280;66892;53.236;6.550;2023-09-30T06:05:17;102544.34;;;10.43;100.00
77725;BME280;66892;53.236;6.550;2023-09-30T06:07:45;102552.28;;;10.44;100.00
77725;BME280;66892;53.236;6.550;2023-09-30T06:10:11;102549.72;;;10.47;100.00
77725;BME280;66892;53.236;6.550;2023-09-30T06:12:37;102557.72;;;10.50;100.00
77725;BME280;66892;53.236;6.550;2023-09-30T06:15:06;102554.16;;;10.50;100.00
77725;BME280;66892;53.236;6.550;2023-09-30T06:17:32;102560.38;;;10.50;100.00
77725;BME280;66892;53.236;6.550;2023-09-30T06:19:59;102561.47;;;10.58;100.00
77725;BME280;66892;53.236;6.550;2023-09-30T06:22:33;102545.69;;;10.63;100.00
77725;BME280;66892;53.236;6.550;2023-09-30T06:24:59;102555.47;;;10.67;100.00
77725;BME280;66892;53.236;6.550;2023-09-30T06:27:25;102563.47;;;10.69;100.00
77725;BME280;66892;53.236;6.550;2023-09-30T06:29:52;102559.09;;;10.71;100.00
77725;BME280;66892;53.236;6.550;2023-09-30T06:32:20;102562.72;;;10.74;100.00
77725;BME280;66892;53.236;6.550;2023-09-30T06:34:46;102557.53;;;10.79;100.00
77725;BME280;66892;53.236;6.550;2023-09-30T06:37:12;102562.03;;;10.83;100.00
77725;BME280;66892;53.236;6.550;2023-09-30T06:39:38;102566.59;;;10.88;100.00
77725;BME280;66892;53.236;6.550;2023-09-30T06:42:04;102574.75;;;10.99;100.00
77725;BME280;66892;53.236;6.550;2023-09-30T06:44:30;102574.88;;;11.05;100.00
77725;BME280;66892;53.236;6.550;2023-09-30T06:46:57;102576.84;;;11.14;100.00
77725;BME280;66892;53.236;6.550;2023-09-30T06:49:25;102575.25;;;11.22;100.00
77725;BME280;66892;53.236;6.550;2023-09-30T06:51:51;102577.19;;;11.29;100.00
77725;BME280;66892;53.236;6.550;2023-09-30T06:54:17;102580.84;;;11.35;100.00
77725;BME280;66892;53.236;6.550;2023-09-30T06:56:43;102585.50;;;11.47;100.00
77725;BME280;66892;53.236;6.550;2023-09-30T06:59:09;102590.97;;;11.54;100.00
77725;BME280;66892;53.236;6.550;2023-09-30T07:01:36;102606.25;;;11.68;100.00
77725;BME280;66892;53.236;6.550;2023-09-30T07:04:02;102603.88;;;11.78;100.00
77725;BME280;66892;53.236;6.550;2023-09-30T07:06:30;102602.31;;;11.89;100.00
77725;BME280;66892;53.236;6.550;2023-09-30T07:08:56;102601.72;;;12.04;100.00
77725;BME280;66892;53.236;6.550;2023-09-30T07:11:29;102606.41;;;12.20;100.00
77725;BME280;66892;53.236;6.550;2023-09-30T07:13:56;102600.50;;;12.35;100.00
77725;BME280;66892;53.236;6.550;2023-09-30T07:16:22;102598.09;;;12.48;100.00
77725;BME280;66892;53.236;6.550;2023-09-30T07:18:48;102600.06;;;12.61;100.00
77725;BME280;66892;53.236;6.550;2023-09-30T07:21:14;102614.38;;;12.71;100.00
77725;BME280;66892;53.236;6.550;2023-09-30T07:23:42;102621.59;;;12.80;100.00
77725;BME280;66892;53.236;6.550;2023-09-30T07:26:08;102615.53;;;12.88;100.00
77725;BME280;66892;53.236;6.550;2023-09-30T07:28:34;102619.13;;;12.92;100.00
77725;BME280;66892;53.236;6.550;2023-09-30T07:31:00;102621.81;;;12.95;100.00
77725;BME280;66892;53.236;6.550;2023-09-30T07:33:27;102621.91;;;13.01;100.00
77725;BME280;66892;53.236;6.550;2023-09-30T07:35:53;102629.97;;;13.07;100.00
77725;BME280;66892;53.236;6.550;2023-09-30T07:38:21;102629.19;;;13.09;100.00
77725;BME280;66892;53.236;6.550;2023-09-30T07:40:49;102627.38;;;13.10;100.00
77725;BME280;66892;53.236;6.550;2023-09-30T07:43:16;102623.91;;;13.14;100.00
77725;BME280;66892;53.236;6.550;2023-09-30T07:45:43;102627.50;;;13.16;100.00
77725;BME280;66892;53.236;6.550;2023-09-30T07:48:09;102641.75;;;13.21;100.00
77725;BME280;66892;53.236;6.550;2023-09-30T07:50:36;102642.69;;;13.26;100.00
77725;BME280;66892;53.236;6.550;2023-09-30T07:53:02;102640.97;;;13.30;100.00
77725;BME280;66892;53.236;6.550;2023-09-30T07:55:28;102641.97;;;13.39;100.00
77725;BME280;66892;53.236;6.550;2023-09-30T07:57:56;102638.53;;;13.46;100.00
77725;BME280;66892;53.236;6.550;2023-09-30T08:00:23;102638.66;;;13.55;100.00
77725;BME280;66892;53.236;6.550;2023-09-30T08:02:49;102640.59;;;13.68;100.00
77725;BME280;66892;53.236;6.550;2023-09-30T08:05:16;102644.50;;;13.96;100.00
77725;BME280;66892;53.236;6.550;2023-09-30T08:07:42;102648.66;;;14.53;100.00
77725;BME280;66892;53.236;6.550;2023-09-30T08:10:09;102637.16;;;14.55;100.00
77725;BME280;66892;53.236;6.550;2023-09-30T08:12:42;102650.44;;;14.51;100.00
77725;BME280;66892;53.236;6.550;2023-09-30T08:15:13;102638.88;;;14.49;100.00
77725;BME280;66892;53.236;6.550;2023-09-30T08:17:40;102633.56;;;14.50;100.00
77725;BME280;66892;53.236;6.550;2023-09-30T08:20:07;102628.28;;;14.56;100.00
77725;BME280;66892;53.236;6.550;2023-09-30T08:22:35;102631.88;;;14.61;100.00
77725;BME280;66892;53.236;6.550;2023-09-30T08:25:01;102639.06;;;14.70;100.00
77725;BME280;66892;53.236;6.550;2023-09-30T08:27:27;102637.38;;;14.80;100.00
77725;BME280;66892;53.236;6.550;2023-09-30T08:29:53;102647.19;;;14.85;100.00
77725;BME280;66892;53.236;6.550;2023-09-30T08:32:21;102633.00;;;14.91;100.00
77725;BME280;66892;53.236;6.550;2023-09-30T08:34:47;102633.94;;;14.97;100.00
77725;BME280;66892;53.236;6.550;2023-09-30T08:37:13;102640.25;;;15.08;100.00
77725;BME280;66892;53.236;6.550;2023-09-30T08:39:39;102646.03;;;15.86;100.00
77725;BME280;66892;53.236;6.550;2023-09-30T08:42:09;102629.16;;;17.41;100.00
77725;BME280;66892;53.236;6.550;2023-09-30T08:44:37;102635.78;;;18.54;96.81
77725;BME280;66892;53.236;6.550;2023-09-30T08:47:04;102637.81;;;19.24;84.37
77725;BME280;66892;53.236;6.550;2023-09-30T08:49:37;102648.16;;;19.62;85.45
77725;BME280;66892;53.236;6.550;2023-09-30T08:52:06;102649.28;;;19.38;88.79
77725;BME280;66892;53.236;6.550;2023-09-30T08:54:32;102655.81;;;19.93;86.53
77725;BME280;66892;53.236;6.550;2023-09-30T08:57:00;102645.34;;;20.38;79.96
77725;BME280;66892;53.236;6.550;2023-09-30T08:59:27;102648.31;;;20.75;75.68
77725;BME280;66892;53.236;6.550;2023-09-30T09:01:54;102644.38;;;20.95;77.43
77725;BME280;66892;53.236;6.550;2023-09-30T09:04:20;102637.53;;;21.28;74.84
77725;BME280;66892;53.236;6.550;2023-09-30T09:06:48;102646.50;;;21.73;73.98
77725;BME280;66892;53.236;6.550;2023-09-30T09:09:15;102642.13;;;22.09;71.35
77725;BME280;66892;53.236;6.550;2023-09-30T09:11:43;102643.97;;;22.45;72.35
77725;BME280;66892;53.236;6.550;2023-09-30T09:14:09;102646.06;;;22.71;68.56
77725;BME280;66892;53.236;6.550;2023-09-30T09:16:35;102643.94;;;22.85;67.62
77725;BME280;66892;53.236;6.550;2023-09-30T09:19:12;102648.38;;;23.20;68.12
77725;BME280;66892;53.236;6.550;2023-09-30T09:21:54;102642.41;;;23.43;66.40
77725;BME280;66892;53.236;6.550;2023-09-30T09:24:27;102647.50;;;23.53;65.96
77725;BME280;66892;53.236;6.550;2023-09-30T09:27:03;102651.78;;;23.60;65.30
77725;BME280;66892;53.236;6.550;2023-09-30T09:29:30;102650.88;;;23.60;63.47
77725;BME280;66892;53.236;6.550;2023-09-30T09:32:07;102661.78;;;23.57;62.42
77725;BME280;66892;53.236;6.550;2023-09-30T09:34:33;102660.03;;;23.56;63.34
77725;BME280;66892;53.236;6.550;2023-09-30T09:37:12;102669.03;;;23.55;60.30
77725;BME280;66892;53.236;6.550;2023-09-30T09:39:38;102677.50;;;23.43;61.03
77725;BME280;66892;53.236;6.550;2023-09-30T09:42:04;102680.75;;;23.54;62.42
77725;BME280;66892;53.236;6.550;2023-09-30T09:44:33;102661.97;;;23.82;62.23
77725;BME280;66892;53.236;6.550;2023-09-30T09:47:03;102661.41;;;24.00;60.68
77725;BME280;66892;53.236;6.550;2023-09-30T09:49:31;102661.34;;;23.72;61.53
77725;BME280;66892;53.236;6.550;2023-09-30T09:51:58;102660.66;;;23.66;61.25
77725;BME280;66892;53.236;6.550;2023-09-30T09:54:28;102671.69;;;22.52;61.23
77725;BME280;66892;53.236;6.550;2023-09-30T09:56:56;102673.88;;;21.50;66.54
77725;BME280;66892;53.236;6.550;2023-09-30T09:59:25;102673.81;;;20.51;69.53
77725;BME280;66892;53.236;6.550;2023-09-30T10:01:52;102683.59;;;20.55;70.90
77725;BME280;66892;53.236;6.550;2023-09-30T10:04:18;102690.88;;;19.78;72.80
77725;BME280;66892;53.236;6.550;2023-09-30T10:06:46;102680.34;;;20.33;71.94
77725;BME280;66892;53.236;6.550;2023-09-30T10:09:18;102679.66;;;21.29;67.24
77725;BME280;66892;53.236;6.550;2023-09-30T10:11:47;102679.47;;;21.40;66.58
77725;BME280;66892;53.236;6.550;2023-09-30T10:14:29;102688.53;;;22.23;63.02
77725;BME280;66892;53.236;6.550;2023-09-30T10:16:56;102691.78;;;21.53;64.04
77725;BME280;66892;53.236;6.550;2023-09-30T10:19:22;102696.88;;;20.66;66.10
77725;BME280;66892;53.236;6.550;2023-09-30T10:22:20;102685.63;;;21.46;64.91
77725;BME280;66892;53.236;6.550;2023-09-30T10:24:52;102673.75;;;22.02;62.61
77725;BME280;66892;53.236;6.550;2023-09-30T10:27:30;102686.25;;;22.05;61.42
77725;BME280;66892;53.236;6.550;2023-09-30T10:30:13;102678.00;;;21.70;62.11
77725;BME280;66892;53.236;6.550;2023-09-30T10:33:09;102684.75;;;20.94;64.80
77725;BME280;66892;53.236;6.550;2023-09-30T10:35:45;102683.88;;;20.38;67.40
77725;BME280;66892;53.236;6.550;2023-09-30T10:40:56;102693.91;;;20.20;69.14
77725;BME280;66892;53.236;6.550;2023-09-30T10:43:30;102691.97;;;21.44;65.32
77725;BME280;66892;53.236;6.550;2023-09-30T10:45:56;102686.41;;;21.51;65.01
77725;BME280;66892;53.236;6.550;2023-09-30T10:48:36;102681.09;;;22.34;60.85
77725;BME280;66892;53.236;6.550;2023-09-30T10:51:16;102683.59;;;22.42;61.35
77725;BME280;66892;53.236;6.550;2023-09-30T10:53:48;102681.38;;;22.97;56.63
77725;BME280;66892;53.236;6.550;2023-09-30T10:56:15;102689.97;;;22.78;56.98
77725;BME280;66892;53.236;6.550;2023-09-30T10:58:43;102691.94;;;23.06;56.05
77725;BME280;66892;53.236;6.550;2023-09-30T11:01:10;102691.13;;;23.37;52.56
77725;BME280;66892;53.236;6.550;2023-09-30T11:03:36;102685.09;;;22.55;55.29
77725;BME280;66892;53.236;6.550;2023-09-30T11:06:03;102678.13;;;21.62;59.23
77725;BME280;66892;53.236;6.550;2023-09-30T11:08:30;102677.03;;;20.73;61.90
77725;BME280;66892;53.236;6.550;2023-09-30T11:10:56;102678.97;;;20.00;65.77
77725;BME280;66892;53.236;6.550;2023-09-30T11:13:22;102667.84;;;19.61;68.45
77725;BME280;66892;53.236;6.550;2023-09-30T11:16:01;102680.63;;;19.36;67.81
77725;BME280;66892;53.236;6.550;2023-09-30T11:18:29;102677.28;;;19.13;70.32
77725;BME280;66892;53.236;6.550;2023-09-30T11:21:04;102675.69;;;18.90;71.40
77725;BME280;66892;53.236;6.550;2023-09-30T11:23:31;102668.59;;;18.82;72.70
77725;BME280;66892;53.236;6.550;2023-09-30T11:25:57;102670.50;;;18.66;73.62
77725;BME280;66892;53.236;6.550;2023-09-30T11:28:23;102655.41;;;18.55;73.41
77725;BME280;66892;53.236;6.550;2023-09-30T11:30:55;102657.25;;;18.43;73.16
77725;BME280;66892;53.236;6.550;2023-09-30T11:33:24;102652.75;;;18.53;71.17
77725;BME280;66892;53.236;6.550;2023-09-30T11:35:57;102656.19;;;18.69;69.62
77725;BME280;66892;53.236;6.550;2023-09-30T11:38:24;102659.81;;;18.63;70.04
77725;BME280;66892;53.236;6.550;2023-09-30T11:41:00;102655.41;;;18.58;70.67
77725;BME280;66892;53.236;6.550;2023-09-30T11:43:30;102656.34;;;18.49;70.78
77725;BME280;66892;53.236;6.550;2023-09-30T11:46:06;102653.66;;;18.49;71.64
77725;BME280;66892;53.236;6.550;2023-09-30T11:48:36;102652.78;;;18.46;72.22
77725;BME280;66892;53.236;6.550;2023-09-30T11:51:03;102659.03;;;18.40;72.47
77725;BME280;66892;53.236;6.550;2023-09-30T11:53:29;102654.69;;;18.30;73.54
77725;BME280;66892;53.236;6.550;2023-09-30T11:55:56;102667.22;;;18.17;74.17
77725;BME280;66892;53.236;6.550;2023-09-30T11:58:25;102666.38;;;18.14;74.64
77725;BME280;66892;53.236;6.550;2023-09-30T12:00:53;102664.59;;;18.13;75.15
77725;BME280;66892;53.236;6.550;2023-09-30T12:03:20;102652.03;;;18.18;75.26
77725;BME280;66892;53.236;6.550;2023-09-30T12:05:47;102664.47;;;18.31;74.32
77725;BME280;66892;53.236;6.550;2023-09-30T12:08:14;102665.25;;;18.48;74.64
77725;BME280;66892;53.236;6.550;2023-09-30T12:10:40;102658.09;;;18.55;74.85
77725;BME280;66892;53.236;6.550;2023-09-30T12:13:06;102661.63;;;18.60;74.74
77725;BME280;66892;53.236;6.550;2023-09-30T12:15:32;102663.38;;;18.64;74.67
77725;BME280;66892;53.236;6.550;2023-09-30T12:17:58;102665.03;;;18.84;72.82
77725;BME280;66892;53.236;6.550;2023-09-30T12:20:24;102653.19;;;19.07;72.13
77725;BME280;66892;53.236;6.550;2023-09-30T12:22:52;102653.78;;;19.36;71.15
77725;BME280;66892;53.236;6.550;2023-09-30T12:25:19;102657.88;;;19.70;70.69
77725;BME280;66892;53.236;6.550;2023-09-30T12:27:47;102655.84;;;19.90;68.99
77725;BME280;66892;53.236;6.550;2023-09-30T12:30:13;102659.25;;;20.02;67.50
77725;BME280;66892;53.236;6.550;2023-09-30T12:32:40;102663.69;;;20.06;67.10
77725;BME280;66892;53.236;6.550;2023-09-30T12:35:07;102663.66;;;20.07;67.42
77725;BME280;66892;53.236;6.550;2023-09-30T12:37:33;102660.28;;;19.93;67.98
77725;BME280;66892;53.236;6.550;2023-09-30T12:40:00;102657.88;;;19.70;69.27
77725;BME280;66892;53.236;6.550;2023-09-30T12:42:27;102652.75;;;19.49;69.03
77725;BME280;66892;53.236;6.550;2023-09-30T12:44:55;102660.03;;;19.38;69.75
77725;BME280;66892;53.236;6.550;2023-09-30T12:47:21;102653.00;;;19.26;68.75